createdAt,value
2023-03-20T00:00:00.256Z,70.75
2023-03-20T00:02:28.919Z,70.66
2023-03-20T00:04:57.659Z,70.79
2023-03-20T00:07:28.010Z,70.38
2023-03-20T00:09:57.937Z,70.38
2023-03-20T00:12:27.400Z,70.15
2023-03-20T00:14:56.534Z,70.22
2023-03-20T00:17:25.546Z,70.15
2023-03-20T00:19:54.133Z,69.85
2023-03-20T00:22:22.956Z,69.93
2023-03-20T00:24:54.489Z,69.99
2023-03-20T00:27:23.123Z,69.86
2023-03-20T00:29:51.844Z,69.90
2023-03-20T00:32:20.561Z,69.72
2023-03-20T00:34:50.135Z,69.93
2023-03-20T00:37:18.860Z,70.01
2023-03-20T00:39:47.536Z,70.01
2023-03-20T00:42:23.183Z,69.91
2023-03-20T00:44:55.851Z,69.77
2023-03-20T00:47:28.601Z,69.91
2023-03-20T00:49:58.013Z,69.63
2023-03-20T00:52:28.697Z,69.97
2023-03-20T00:54:57.420Z,69.86
2023-03-20T00:57:31.800Z,69.82
2023-03-20T01:00:06.311Z,69.67
2023-03-20T01:02:35.312Z,69.89
2023-03-20T01:05:05.729Z,69.81
2023-03-20T01:07:34.417Z,69.59
2023-03-20T01:10:05.574Z,69.71
2023-03-20T01:12:35.868Z,69.65
2023-03-20T01:15:05.075Z,69.83
2023-03-20T01:17:33.762Z,69.82
2023-03-20T01:20:02.714Z,69.46
2023-03-20T01:22:31.734Z,69.65
2023-03-20T01:25:01.020Z,69.62
2023-03-20T01:27:29.920Z,69.59
2023-03-20T01:29:59.981Z,69.47
2023-03-20T01:32:29.029Z,69.52
2023-03-20T01:34:58.271Z,69.44
2023-03-20T01:37:29.327Z,69.53
2023-03-20T01:40:03.291Z,69.68
2023-03-20T01:42:35.054Z,69.69
2023-03-20T01:45:19.767Z,69.61
2023-03-20T01:47:49.508Z,69.85
2023-03-20T01:50:33.550Z,69.84
2023-03-20T01:53:15.310Z,69.82
2023-03-20T01:55:54.175Z,69.99
2023-03-20T01:58:32.548Z,70.04
2023-03-20T02:01:03.408Z,69.83
2023-03-20T02:03:33.204Z,69.82
2023-03-20T02:06:27.364Z,69.79
2023-03-20T02:09:14.776Z,69.84
2023-03-20T02:11:47.994Z,69.99
2023-03-20T02:14:20.279Z,69.99
2023-03-20T02:17:30.731Z,70.06
2023-03-20T02:20:19.128Z,70.17
2023-03-20T02:23:38.894Z,70.06
2023-03-20T02:26:32.819Z,70.14
2023-03-20T02:29:58.388Z,70.31
2023-03-20T02:33:32.934Z,70.55
2023-03-20T02:36:48.361Z,70.32
2023-03-20T02:39:46.399Z,70.40
2023-03-20T02:42:26.863Z,70.77
2023-03-20T02:45:09.241Z,70.92
2023-03-20T02:47:49.543Z,71.36
2023-03-20T02:50:34.994Z,71.15
2023-03-20T02:53:21.210Z,71.57
2023-03-20T02:56:04.337Z,71.68
2023-03-20T02:58:44.809Z,71.54
2023-03-20T03:01:20.069Z,71.62
2023-03-20T03:03:55.787Z,71.80
2023-03-20T03:06:31.745Z,71.95
2023-03-20T03:09:07.374Z,72.10
2023-03-20T03:11:45.297Z,72.08
2023-03-20T03:14:21.584Z,72.46
2023-03-20T03:16:53.023Z,72.88
2023-03-20T03:19:29.504Z,72.83
2023-03-20T03:21:58.244Z,73.30
2023-03-20T03:24:40.853Z,73.32
2023-03-20T03:27:22.199Z,74.39
2023-03-20T03:29:57.595Z,74.30
2023-03-20T03:32:33.967Z,74.56
2023-03-20T03:35:05.589Z,75.18
2023-03-20T03:37:55.676Z,75.07
2023-03-20T03:40:37.182Z,74.63
2023-03-20T03:43:18.397Z,75.74
2023-03-20T03:45:54.407Z,76.28
2023-03-20T03:48:30.391Z,75.32
2023-03-20T03:51:05.539Z,75.53
2023-03-20T03:53:42.562Z,76.12
2023-03-20T03:56:15.478Z,76.02
2023-03-20T03:58:49.908Z,76.30
2023-03-20T04:01:21.900Z,76.43
2023-03-20T04:03:55.182Z,75.90
2023-03-20T04:06:24.211Z,76.69
2023-03-20T04:08:53.084Z,77.07
2023-03-20T04:11:26.610Z,76.33
2023-03-20T04:13:57.681Z,76.44
2023-03-20T04:16:27.920Z,76.91
2023-03-20T04:18:56.862Z,77.12
2023-03-20T04:21:26.380Z,77.20
2023-03-20T04:23:55.010Z,77.43
2023-03-20T04:26:24.717Z,77.60
2023-03-20T04:28:55.382Z,77.53
2023-03-20T04:31:42.777Z,77.67
2023-03-20T04:34:30.071Z,78.04
2023-03-20T04:37:10.236Z,77.92
2023-03-20T04:39:53.353Z,78.27
2023-03-20T04:42:21.962Z,78.43
2023-03-20T04:44:52.931Z,78.50
2023-03-20T04:47:21.593Z,78.29
2023-03-20T04:49:50.232Z,78.69
2023-03-20T04:52:20.100Z,78.73
2023-03-20T04:54:48.811Z,78.88
2023-03-20T04:57:17.965Z,78.89
2023-03-20T04:59:46.742Z,79.12
2023-03-20T05:02:17.985Z,79.21
2023-03-20T05:04:46.732Z,79.05
2023-03-20T05:07:16.198Z,79.09
2023-03-20T05:10:01.318Z,79.23
2023-03-20T05:12:32.113Z,79.25
2023-03-20T05:15:13.107Z,79.03
2023-03-20T05:18:06.560Z,79.15
2023-03-20T05:20:53.561Z,79.06
2023-03-20T05:23:54.515Z,79.29
2023-03-20T05:26:45.777Z,79.08
2023-03-20T05:29:20.151Z,78.80
2023-03-20T05:32:00.968Z,78.67
2023-03-20T05:34:40.627Z,78.55
2023-03-20T05:37:18.967Z,78.43
2023-03-20T05:39:56.568Z,78.37
2023-03-20T05:42:55.902Z,78.41
2023-03-20T05:45:54.180Z,78.18
2023-03-20T05:48:49.067Z,77.92
2023-03-20T05:51:29.883Z,77.77
2023-03-20T05:54:12.979Z,77.73
2023-03-20T05:57:00.273Z,77.67
2023-03-20T05:59:35.901Z,77.54
2023-03-20T06:02:22.939Z,77.45
2023-03-20T06:05:00.493Z,77.32
2023-03-20T06:07:33.347Z,77.13
2023-03-20T06:10:07.288Z,76.94
2023-03-20T06:12:36.192Z,76.81
2023-03-20T06:15:06.565Z,76.63
2023-03-20T06:17:39.521Z,75.87
2023-03-20T06:20:12.333Z,75.52
2023-03-20T06:22:42.776Z,75.18
2023-03-20T06:25:12.050Z,74.87
2023-03-20T06:27:44.064Z,74.54
2023-03-20T06:30:14.210Z,74.28
2023-03-20T06:32:43.895Z,74.39
2023-03-20T06:35:14.310Z,74.23
2023-03-20T06:37:48.452Z,73.96
2023-03-20T06:40:23.639Z,74.04
2023-03-20T06:42:52.587Z,73.81
2023-03-20T06:45:21.753Z,73.77
2023-03-20T06:48:02.215Z,73.55
2023-03-20T06:50:31.045Z,73.26
2023-03-20T06:53:02.232Z,72.85
2023-03-20T06:55:44.865Z,71.95
2023-03-20T06:58:13.595Z,71.57
2023-03-20T07:00:42.744Z,71.47
2023-03-20T07:03:11.763Z,71.36
2023-03-20T07:05:41.567Z,71.18
2023-03-20T07:08:15.291Z,71.17
2023-03-20T07:10:44.008Z,71.29
2023-03-20T07:13:14.470Z,71.20
2023-03-20T07:16:01.163Z,70.96
2023-03-20T07:18:34.497Z,70.72
2023-03-20T07:21:06.538Z,70.57
2023-03-20T07:23:37.273Z,70.77
2023-03-20T07:26:06.861Z,70.68
2023-03-20T07:28:36.532Z,70.68
2023-03-20T07:31:25.814Z,70.46
2023-03-20T07:34:03.316Z,70.42
2023-03-20T07:36:34.918Z,70.27
2023-03-20T07:39:05.373Z,70.46
2023-03-20T07:41:36.422Z,70.42
2023-03-20T07:44:10.554Z,70.23
2023-03-20T07:46:52.391Z,70.32
2023-03-20T07:49:27.797Z,69.79
2023-03-20T07:51:57.080Z,69.55
2023-03-20T07:54:27.494Z,69.28
2023-03-20T07:56:56.151Z,69.38
2023-03-20T07:59:25.423Z,68.83
2023-03-20T08:01:54.388Z,68.81
2023-03-20T08:04:23.353Z,68.96
2023-03-20T08:06:53.013Z,68.89
2023-03-20T08:09:21.882Z,68.48
2023-03-20T08:11:52.229Z,68.80
2023-03-20T08:14:20.917Z,68.68
2023-03-20T08:17:02.356Z,68.91
2023-03-20T08:19:38.389Z,68.85
2023-03-20T08:22:07.167Z,68.94
2023-03-20T08:24:35.779Z,69.09
2023-03-20T08:27:05.940Z,68.97
2023-03-20T08:29:34.983Z,69.12
2023-03-20T08:32:03.791Z,69.02
2023-03-20T08:34:33.711Z,68.90
2023-03-20T08:37:04.864Z,68.51
2023-03-20T08:39:34.450Z,68.48
2023-03-20T08:42:03.290Z,68.38
2023-03-20T08:44:33.389Z,68.28
2023-03-20T08:47:07.532Z,68.39
2023-03-20T08:49:37.028Z,68.17
2023-03-20T08:52:07.062Z,68.22
2023-03-20T08:54:35.705Z,68.04
2023-03-20T08:57:04.423Z,67.90
2023-03-20T08:59:34.508Z,67.81
2023-03-20T09:02:03.216Z,67.96
2023-03-20T09:04:31.863Z,67.85
2023-03-20T09:07:01.384Z,67.53
2023-03-20T09:09:30.443Z,67.26
2023-03-20T09:12:00.061Z,67.19
2023-03-20T09:14:29.863Z,66.84
2023-03-20T09:17:00.067Z,66.37
2023-03-20T09:19:30.034Z,66.05
2023-03-20T09:21:59.841Z,66.07
2023-03-20T09:24:29.548Z,65.89
2023-03-20T09:26:58.701Z,65.86
2023-03-20T09:29:27.494Z,65.96
2023-03-20T09:31:56.132Z,65.58
2023-03-20T09:34:26.226Z,65.58
2023-03-20T09:36:54.902Z,65.43
2023-03-20T09:39:23.533Z,65.24
2023-03-20T09:41:57.477Z,65.43
2023-03-20T09:44:47.204Z,65.53
2023-03-20T09:47:27.723Z,65.62
2023-03-20T09:50:26.058Z,65.48
2023-03-20T09:53:02.845Z,65.47
2023-03-20T09:55:38.161Z,65.45
2023-03-20T09:58:16.316Z,65.35
2023-03-20T10:00:47.928Z,65.38
2023-03-20T10:03:23.665Z,65.40
2023-03-20T10:06:01.864Z,65.59
2023-03-20T10:08:36.397Z,65.51
2023-03-20T10:11:24.777Z,65.61
2023-03-20T10:14:13.928Z,65.44
2023-03-20T10:17:05.611Z,65.36
2023-03-20T10:19:44.617Z,65.61
2023-03-20T10:22:25.820Z,65.47
2023-03-20T10:25:04.473Z,65.21
2023-03-20T10:27:41.355Z,64.81
2023-03-20T10:30:30.292Z,64.04
2023-03-20T10:33:13.785Z,63.39
2023-03-20T10:35:51.641Z,63.52
2023-03-20T10:38:37.022Z,63.03
2023-03-20T10:41:11.755Z,63.05
2023-03-20T10:43:43.498Z,63.09
2023-03-20T10:46:16.235Z,63.39
2023-03-20T10:48:50.606Z,63.90
2023-03-20T10:51:23.089Z,64.24
2023-03-20T10:54:00.554Z,64.26
2023-03-20T10:56:37.884Z,64.44
2023-03-20T10:59:13.935Z,64.51
2023-03-20T11:01:45.747Z,64.70
2023-03-20T11:04:14.383Z,64.61
2023-03-20T11:06:51.602Z,64.86
2023-03-20T11:09:27.189Z,65.08
2023-03-20T11:12:02.736Z,65.10
2023-03-20T11:14:38.183Z,64.95
2023-03-20T11:17:08.228Z,65.02
2023-03-20T11:19:41.568Z,65.14
2023-03-20T11:22:25.604Z,65.38
2023-03-20T11:25:01.460Z,65.66
2023-03-20T11:27:34.464Z,65.74
2023-03-20T11:30:08.541Z,65.90
2023-03-20T11:32:42.429Z,65.61
2023-03-20T11:35:25.037Z,65.20
2023-03-20T11:37:56.173Z,64.89
2023-03-20T11:40:34.662Z,64.80
2023-03-20T11:43:14.505Z,64.66
2023-03-20T11:45:47.609Z,65.02
2023-03-20T11:48:21.988Z,64.96
2023-03-20T11:51:01.228Z,64.94
2023-03-20T11:53:46.394Z,64.87
2023-03-20T11:56:25.745Z,64.68
2023-03-20T11:59:01.170Z,64.44
2023-03-20T12:01:40.682Z,64.64
2023-03-20T12:04:15.081Z,64.46
2023-03-20T12:06:54.435Z,64.40
2023-03-20T12:09:35.928Z,64.56
2023-03-20T12:12:17.623Z,64.48
2023-03-20T12:14:58.395Z,64.33
2023-03-20T12:17:58.593Z,64.32
2023-03-20T12:20:37.980Z,64.38
2023-03-20T12:23:28.746Z,64.03
2023-03-20T12:26:04.311Z,63.98
2023-03-20T12:28:48.013Z,63.86
2023-03-20T12:31:28.014Z,63.68
2023-03-20T12:34:02.393Z,63.79
2023-03-20T12:36:36.083Z,63.81
2023-03-20T12:39:07.930Z,63.61
2023-03-20T12:41:54.415Z,63.71
2023-03-20T12:44:39.683Z,63.71
2023-03-20T12:47:28.745Z,63.31
2023-03-20T12:50:10.005Z,62.91
2023-03-20T12:52:52.568Z,62.75
2023-03-20T12:55:40.342Z,62.76
2023-03-20T12:58:27.170Z,62.78
2023-03-20T13:01:05.129Z,62.74
2023-03-20T13:04:04.281Z,62.67
2023-03-20T13:06:49.386Z,62.61
2023-03-20T13:09:52.241Z,62.69
2023-03-20T13:12:40.036Z,62.80
2023-03-20T13:15:39.907Z,62.75
2023-03-20T13:18:21.645Z,62.87
2023-03-20T13:20:53.602Z,63.13
2023-03-20T13:23:27.796Z,63.02
2023-03-20T13:26:23.587Z,63.00
2023-03-20T13:29:03.565Z,62.90
2023-03-20T13:31:54.750Z,62.82
2023-03-20T13:34:39.963Z,63.33
2023-03-20T13:37:24.136Z,63.36
2023-03-20T13:40:07.193Z,62.89
2023-03-20T13:42:44.044Z,63.33
2023-03-20T13:45:30.644Z,63.29
2023-03-20T13:48:07.022Z,63.38
2023-03-20T13:50:47.195Z,63.19
2023-03-20T13:53:31.137Z,63.16
2023-03-20T13:56:14.498Z,63.42
2023-03-20T13:59:01.115Z,63.34
2023-03-20T14:01:42.794Z,63.56
2023-03-20T14:04:17.929Z,63.65
2023-03-20T14:06:54.857Z,63.52
2023-03-20T14:09:33.885Z,63.75
2023-03-20T14:12:08.006Z,63.83
2023-03-20T14:14:44.987Z,63.92
2023-03-20T14:17:23.275Z,63.67
2023-03-20T14:19:53.792Z,63.79
2023-03-20T14:22:30.008Z,63.65
2023-03-20T14:25:05.176Z,63.64
2023-03-20T14:27:54.442Z,63.81
2023-03-20T14:30:45.925Z,63.92
2023-03-20T14:33:32.746Z,63.97
2023-03-20T14:36:46.421Z,64.17
2023-03-20T14:39:36.200Z,64.22
2023-03-20T14:42:24.946Z,64.41
2023-03-20T14:45:31.800Z,64.40
2023-03-20T14:48:09.171Z,64.48
2023-03-20T14:50:52.265Z,64.38
2023-03-20T14:53:25.136Z,64.63
2023-03-20T14:56:10.125Z,64.33
2023-03-20T14:58:50.839Z,64.51
2023-03-20T15:01:41.983Z,64.68
2023-03-20T15:04:30.038Z,64.61
2023-03-20T15:07:03.155Z,64.74
2023-03-20T15:09:37.210Z,65.29
2023-03-20T15:12:07.958Z,65.26
2023-03-20T15:14:44.147Z,65.23
2023-03-20T15:17:20.888Z,65.37
2023-03-20T15:19:50.257Z,65.52
2023-03-20T15:22:21.977Z,65.52
2023-03-20T15:24:56.872Z,65.98
2023-03-20T15:27:30.742Z,66.08
2023-03-20T15:30:03.664Z,66.34
2023-03-20T15:32:36.799Z,66.40
2023-03-20T15:35:08.424Z,66.41
2023-03-20T15:37:38.062Z,66.97
2023-03-20T15:40:19.577Z,66.95
2023-03-20T15:42:55.737Z,67.24
2023-03-20T15:45:29.724Z,67.23
2023-03-20T15:48:03.538Z,67.44
2023-03-20T15:50:38.539Z,67.55
2023-03-20T15:53:11.452Z,67.76
2023-03-20T15:55:40.420Z,67.82
2023-03-20T15:58:15.359Z,68.02
2023-03-20T16:00:47.312Z,68.30
2023-03-20T16:03:20.781Z,68.18
2023-03-20T16:05:52.292Z,68.42
2023-03-20T16:08:27.110Z,68.70
2023-03-20T16:11:01.414Z,69.08
2023-03-20T16:13:39.139Z,69.18
2023-03-20T16:16:13.198Z,69.15
2023-03-20T16:18:43.149Z,69.25
2023-03-20T16:21:19.924Z,69.42
2023-03-20T16:23:53.279Z,69.38
2023-03-20T16:26:25.377Z,69.26
2023-03-20T16:28:59.476Z,69.48
2023-03-20T16:31:33.512Z,69.82
2023-03-20T16:34:06.723Z,69.92
2023-03-20T16:36:39.593Z,70.08
2023-03-20T16:39:11.851Z,70.03
2023-03-20T16:41:41.463Z,70.05
2023-03-20T16:44:17.249Z,69.85
2023-03-20T16:47:02.535Z,69.76
2023-03-20T16:50:12.208Z,69.81
2023-03-20T16:52:45.826Z,69.83
2023-03-20T16:55:22.365Z,69.83
2023-03-20T16:57:57.621Z,69.91
2023-03-20T17:00:31.440Z,69.86
2023-03-20T17:03:08.442Z,69.92
2023-03-20T17:05:59.997Z,70.03
2023-03-20T17:08:35.603Z,70.00
2023-03-20T17:11:12.267Z,70.07
2023-03-20T17:13:41.450Z,70.05
2023-03-20T17:16:19.096Z,69.84
2023-03-20T17:18:48.699Z,69.78
2023-03-20T17:21:17.904Z,69.91
2023-03-20T17:23:46.659Z,70.00
2023-03-20T17:26:15.397Z,70.06
2023-03-20T17:28:44.332Z,69.74
2023-03-20T17:31:16.338Z,69.70
2023-03-20T17:33:46.471Z,69.60
2023-03-20T17:36:19.418Z,69.94
2023-03-20T17:38:48.155Z,69.68
2023-03-20T17:41:18.263Z,69.68
2023-03-20T17:43:47.699Z,69.81
2023-03-20T17:46:20.516Z,70.14
2023-03-20T17:48:51.040Z,70.10
2023-03-20T17:51:19.895Z,70.24
2023-03-20T17:53:48.793Z,70.29
2023-03-20T17:56:18.424Z,70.20
2023-03-20T17:58:47.078Z,70.35
2023-03-20T18:01:16.200Z,70.37
2023-03-20T18:03:46.327Z,70.36
2023-03-20T18:06:24.875Z,70.42
2023-03-20T18:08:53.469Z,70.73
2023-03-20T18:11:22.343Z,70.47
2023-03-20T18:13:51.050Z,70.40
2023-03-20T18:16:24.251Z,70.67
2023-03-20T18:19:01.632Z,70.57
2023-03-20T18:21:31.776Z,70.73
2023-03-20T18:24:00.649Z,70.59
2023-03-20T18:26:29.822Z,70.60
2023-03-20T18:28:58.824Z,70.59
2023-03-20T18:31:27.618Z,70.63
2023-03-20T18:33:57.676Z,70.70
2023-03-20T18:36:26.603Z,70.73
2023-03-20T18:38:55.390Z,70.87
2023-03-20T18:41:24.457Z,70.86
2023-03-20T18:43:55.589Z,71.08
2023-03-20T18:46:26.988Z,70.88
2023-03-20T18:48:58.103Z,70.76
2023-03-20T18:51:27.201Z,71.05
2023-03-20T18:53:55.999Z,71.15
2023-03-20T18:56:28.472Z,71.39
2023-03-20T18:58:57.160Z,71.28
2023-03-20T19:01:27.244Z,71.65
2023-03-20T19:03:57.519Z,71.69
2023-03-20T19:06:26.229Z,71.43
2023-03-20T19:08:54.919Z,71.39
2023-03-20T19:11:23.603Z,71.66
2023-03-20T19:13:54.806Z,71.83
2023-03-20T19:16:27.364Z,72.02
2023-03-20T19:19:01.296Z,72.17
2023-03-20T19:21:30.870Z,72.38
2023-03-20T19:24:02.289Z,72.44
2023-03-20T19:26:37.060Z,72.54
2023-03-20T19:29:09.544Z,72.70
2023-03-20T19:31:38.428Z,72.73
2023-03-20T19:34:24.078Z,72.64
2023-03-20T19:36:57.049Z,72.79
2023-03-20T19:39:25.827Z,72.79
2023-03-20T19:41:54.755Z,72.79
2023-03-20T19:44:24.074Z,72.85
2023-03-20T19:46:56.253Z,72.97
2023-03-20T19:49:30.802Z,72.83
2023-03-20T19:52:01.454Z,72.87
2023-03-20T19:54:30.835Z,73.12
2023-03-20T19:57:01.087Z,73.06
2023-03-20T19:59:32.748Z,72.91
2023-03-20T20:02:03.109Z,72.77
2023-03-20T20:04:34.714Z,72.86
2023-03-20T20:07:47.605Z,72.77
2023-03-20T20:09:54.829Z,72.81
2023-03-20T20:12:23.650Z,72.99
2023-03-20T20:14:52.483Z,72.83
2023-03-20T20:17:21.111Z,72.79
2023-03-20T20:19:51.081Z,72.81
2023-03-20T20:22:25.839Z,72.95
2023-03-20T20:24:55.379Z,72.73
2023-03-20T20:27:24.036Z,72.81
2023-03-20T20:29:54.510Z,72.66
2023-03-20T20:32:26.600Z,72.74
2023-03-20T20:40:35.693Z,72.77
2023-03-20T20:43:10.061Z,72.91
2023-03-20T20:45:40.006Z,72.78
2023-03-20T20:48:09.584Z,72.82
2023-03-20T20:50:40.916Z,73.02
2023-03-20T20:53:09.569Z,72.95
2023-03-20T20:55:38.506Z,72.83
2023-03-20T20:58:07.388Z,72.85
2023-03-20T21:00:49.483Z,72.91
2023-03-20T21:03:20.512Z,73.04
2023-03-20T21:05:51.208Z,73.10
2023-03-20T21:08:19.863Z,73.27
2023-03-20T21:10:48.823Z,73.35
2023-03-20T21:13:17.531Z,73.33
2023-03-20T21:15:46.582Z,73.39
2023-03-20T21:18:15.546Z,73.49
2023-03-20T21:20:44.266Z,73.74
2023-03-20T21:23:14.357Z,73.96
2023-03-20T21:25:46.499Z,74.05
2023-03-20T21:28:16.516Z,74.24
2023-03-20T21:31:09.042Z,74.36
2023-03-20T21:33:36.145Z,74.26
2023-03-20T21:36:05.327Z,74.59
2023-03-20T21:41:24.580Z,74.95
2023-03-20T21:43:54.021Z,74.92
2023-03-20T21:47:00.013Z,75.07
2023-03-20T21:55:22.369Z,75.59
2023-03-20T22:01:21.728Z,76.00
2023-03-20T22:03:52.121Z,76.51
2023-03-20T22:07:09.594Z,76.75
2023-03-20T22:18:14.898Z,77.96
2023-03-20T22:21:06.769Z,78.17
2023-03-20T22:23:56.123Z,78.58
2023-03-20T22:32:33.428Z,79.23
2023-03-20T22:35:05.073Z,79.27
2023-03-20T22:40:57.432Z,79.59
2023-03-20T22:43:59.895Z,79.61
2023-03-20T22:46:05.624Z,79.72
2023-03-20T22:48:41.101Z,79.75
2023-03-20T22:51:11.006Z,80.01
2023-03-20T22:53:45.735Z,80.33
2023-03-20T22:56:16.517Z,80.52
2023-03-20T22:58:45.555Z,80.57
2023-03-20T23:01:15.608Z,80.38
2023-03-20T23:03:44.786Z,80.29
2023-03-20T23:06:21.326Z,80.41
2023-03-20T23:08:55.485Z,80.97
2023-03-20T23:11:28.652Z,81.35
2023-03-20T23:13:57.346Z,81.53
2023-03-20T23:16:27.361Z,81.73
2023-03-20T23:18:56.830Z,81.94
2023-03-20T23:21:26.704Z,82.11
2023-03-20T23:23:55.589Z,82.27
2023-03-20T23:26:24.302Z,82.35
2023-03-20T23:28:53.865Z,82.81
2023-03-20T23:31:25.381Z,83.09
2023-03-20T23:33:58.535Z,83.50
2023-03-20T23:36:36.510Z,83.99
2023-03-20T23:39:07.196Z,84.12
2023-03-20T23:42:06.233Z,84.37
2023-03-20T23:44:25.575Z,84.28
2023-03-20T23:46:55.521Z,84.82
2023-03-20T23:49:26.072Z,85.20
2023-03-20T23:51:54.624Z,85.77
2023-03-20T23:54:24.247Z,85.54
2023-03-20T23:56:52.858Z,85.78
2023-03-20T23:59:22.549Z,85.82
